sensor_id;sensor_type;location;lat;lon;timestamp;P1;durP1;ratioP1;P2;durP2;ratioP2
537;SDS011;254;48.524;8.926;2023-04-06T07:35:09;9.6;;;8.6;;
537;SDS011;254;48.524;8.926;2023-04-06T07:36:03;9.9;;;8.4;;
537;SDS011;254;48.524;8.926;2023-04-06T07:37:02;9.4;;;8.6;;
537;SDS011;254;48.524;8.926;2023-04-06T07:38:02;9.4;;;7.9;;
537;SDS011;254;48.524;8.926;2023-04-06T07:39:02;10.5;;;8.7;;
537;SDS011;254;48.524;8.926;2023-04-06T07:40:03;10.8;;;8.6;;
537;SDS011;254;48.524;8.926;2023-04-06T07:41:02;9.7;;;8.7;;
537;SDS011;254;48.524;8.926;2023-04-06T07:42:02;10.0;;;8.8;;
537;SDS011;254;48.524;8.926;2023-04-06T07:43:02;10.7;;;8.9;;
537;SDS011;254;48.524;8.926;2023-04-06T07:44:03;10.3;;;9.1;;
537;SDS011;254;48.524;8.926;2023-04-06T07:45:02;9.6;;;8.7;;
537;SDS011;254;48.524;8.926;2023-04-06T07:46:02;10.0;;;9.0;;
537;SDS011;254;48.524;8.926;2023-04-06T07:47:02;11.0;;;9.1;;
537;SDS011;254;48.524;8.926;2023-04-06T07:48:03;11.3;;;9.2;;
537;SDS011;254;48.524;8.926;2023-04-06T07:49:02;10.8;;;8.4;;
537;SDS011;254;48.524;8.926;2023-04-06T07:50:02;11.7;;;9.1;;
537;SDS011;254;48.524;8.926;2023-04-06T07:51:03;9.1;;;8.2;;
537;SDS011;254;48.524;8.926;2023-04-06T07:52:02;10.0;;;8.5;;
537;SDS011;254;48.524;8.926;2023-04-06T07:53:02;10.3;;;8.5;;
537;SDS011;254;48.524;8.926;2023-04-06T07:54:03;10.0;;;9.0;;
537;SDS011;254;48.524;8.926;2023-04-06T07:55:03;12.0;;;9.0;;
537;SDS011;254;48.524;8.926;2023-04-06T08:17:58;10.4;;;8.0;;
537;SDS011;254;48.524;8.926;2023-04-06T08:18:02;9.8;;;8.0;;
537;SDS011;254;48.524;8.926;2023-04-06T08:19:03;9.0;;;8.0;;
537;SDS011;254;48.524;8.926;2023-04-06T08:20:02;8.7;;;7.9;;
537;SDS011;254;48.524;8.926;2023-04-06T08:21:02;9.9;;;8.6;;
537;SDS011;254;48.524;8.926;2023-04-06T08:22:02;9.8;;;8.2;;
537;SDS011;254;48.524;8.926;2023-04-06T08:23:02;9.3;;;8.4;;
537;SDS011;254;48.524;8.926;2023-04-06T08:24:02;10.2;;;9.1;;
537;SDS011;254;48.524;8.926;2023-04-06T08:25:03;10.2;;;8.5;;
537;SDS011;254;48.524;8.926;2023-04-06T08:26:02;10.0;;;8.1;;
537;SDS011;254;48.524;8.926;2023-04-06T08:27:02;8.9;;;7.9;;
537;SDS011;254;48.524;8.926;2023-04-06T08:28:02;9.4;;;8.0;;
537;SDS011;254;48.524;8.926;2023-04-06T08:29:03;8.3;;;7.4;;
537;SDS011;254;48.524;8.926;2023-04-06T08:30:02;8.9;;;8.0;;
537;SDS011;254;48.524;8.926;2023-04-06T08:31:03;8.6;;;7.7;;
537;SDS011;254;48.524;8.926;2023-04-06T08:32:02;8.8;;;7.9;;
537;SDS011;254;48.524;8.926;2023-04-06T08:33:02;9.8;;;7.8;;
537;SDS011;254;48.524;8.926;2023-04-06T08:34:02;8.7;;;7.8;;
537;SDS011;254;48.524;8.926;2023-04-06T08:35:03;9.0;;;8.1;;
537;SDS011;254;48.524;8.926;2023-04-06T08:36:10;9.3;;;8.3;;
537;SDS011;254;48.524;8.926;2023-04-06T08:37:03;8.9;;;8.0;;
537;SDS011;254;48.524;8.926;2023-04-06T08:38:02;8.6;;;7.7;;
537;SDS011;254;48.524;8.926;2023-04-06T08:39:02;10.1;;;7.9;;
537;SDS011;254;48.524;8.926;2023-04-06T08:40:03;10.0;;;9.0;;
537;SDS011;254;48.524;8.926;2023-04-06T08:41:10;8.2;;;7.4;;
537;SDS011;254;48.524;8.926;2023-04-06T08:42:02;8.5;;;7.5;;
537;SDS011;254;48.524;8.926;2023-04-06T08:43:03;9.3;;;7.8;;
537;SDS011;254;48.524;8.926;2023-04-06T08:44:02;8.9;;;7.5;;
537;SDS011;254;48.524;8.926;2023-04-06T08:45:03;10.7;;;7.9;;
537;SDS011;254;48.524;8.926;2023-04-06T08:46:04;8.6;;;7.8;;
537;SDS011;254;48.524;8.926;2023-04-06T08:47:02;10.0;;;7.5;;
537;SDS011;254;48.524;8.926;2023-04-06T08:48:02;10.0;;;8.0;;
537;SDS011;254;48.524;8.926;2023-04-06T08:49:03;9.7;;;8.0;;
537;SDS011;254;48.524;8.926;2023-04-06T08:50:02;8.9;;;7.9;;
537;SDS011;254;48.524;8.926;2023-04-06T08:51:02;9.4;;;7.3;;
537;SDS011;254;48.524;8.926;2023-04-06T08:52:02;8.0;;;7.2;;
537;SDS011;254;48.524;8.926;2023-04-06T08:53:02;9.5;;;7.6;;
537;SDS011;254;48.524;8.926;2023-04-06T08:54:02;8.9;;;7.7;;
537;SDS011;254;48.524;8.926;2023-04-06T08:55:02;7.9;;;7.1;;
537;SDS011;254;48.524;8.926;2023-04-06T08:56:02;8.3;;;7.5;;
537;SDS011;254;48.524;8.926;2023-04-06T08:57:03;8.4;;;7.5;;
537;SDS011;254;48.524;8.926;2023-04-06T08:58:02;8.4;;;7.5;;
537;SDS011;254;48.524;8.926;2023-04-06T08:59:02;8.0;;;7.2;;
537;SDS011;254;48.524;8.926;2023-04-06T09:00:03;9.7;;;7.7;;
537;SDS011;254;48.524;8.926;2023-04-06T09:01:05;9.0;;;7.3;;
537;SDS011;254;48.524;8.926;2023-04-06T09:02:03;9.2;;;7.0;;
537;SDS011;254;48.524;8.926;2023-04-06T09:03:02;8.7;;;7.1;;
537;SDS011;254;48.524;8.926;2023-04-06T09:04:02;8.1;;;7.0;;
537;SDS011;254;48.524;8.926;2023-04-06T09:05:03;8.6;;;7.7;;
537;SDS011;254;48.524;8.926;2023-04-06T09:06:02;9.0;;;7.4;;
537;SDS011;254;48.524;8.926;2023-04-06T09:07:02;9.8;;;7.2;;
537;SDS011;254;48.524;8.926;2023-04-06T09:08:02;8.2;;;7.4;;
537;SDS011;254;48.524;8.926;2023-04-06T09:09:03;8.3;;;7.4;;
537;SDS011;254;48.524;8.926;2023-04-06T09:10:02;8.6;;;7.7;;
537;SDS011;254;48.524;8.926;2023-04-06T09:11:02;7.2;;;6.4;;
537;SDS011;254;48.524;8.926;2023-04-06T09:12:03;7.6;;;6.6;;
537;SDS011;254;48.524;8.926;2023-04-06T09:13:04;7.7;;;6.5;;
537;SDS011;254;48.524;8.926;2023-04-06T09:14:02;8.9;;;7.0;;
537;SDS011;254;48.524;8.926;2023-04-06T09:15:02;8.1;;;7.3;;
537;SDS011;254;48.524;8.926;2023-04-06T09:16:02;12.3;;;7.0;;
537;SDS011;254;48.524;8.926;2023-04-06T09:17:02;7.7;;;6.7;;
537;SDS011;254;48.524;8.926;2023-04-06T09:18:02;9.5;;;7.3;;
537;SDS011;254;48.524;8.926;2023-04-06T09:19:03;7.7;;;6.4;;
537;SDS011;254;48.524;8.926;2023-04-06T09:20:03;8.2;;;7.1;;
537;SDS011;254;48.524;8.926;2023-04-06T09:21:03;8.8;;;7.4;;
537;SDS011;254;48.524;8.926;2023-04-06T09:22:02;7.1;;;6.4;;
537;SDS011;254;48.524;8.926;2023-04-06T09:23:02;7.4;;;6.7;;
537;SDS011;254;48.524;8.926;2023-04-06T09:24:03;7.8;;;7.0;;
537;SDS011;254;48.524;8.926;2023-04-06T09:25:02;8.5;;;6.3;;
537;SDS011;254;48.524;8.926;2023-04-06T09:26:05;9.1;;;6.6;;
537;SDS011;254;48.524;8.926;2023-04-06T09:27:02;9.4;;;7.1;;
537;SDS011;254;48.524;8.926;2023-04-06T09:28:03;8.4;;;6.6;;
537;SDS011;254;48.524;8.926;2023-04-06T09:29:02;7.9;;;7.0;;
537;SDS011;254;48.524;8.926;2023-04-06T09:30:03;8.4;;;7.2;;
537;SDS011;254;48.524;8.926;2023-04-06T09:31:02;9.8;;;7.1;;
537;SDS011;254;48.524;8.926;2023-04-06T09:32:02;8.6;;;6.6;;
537;SDS011;254;48.524;8.926;2023-04-06T09:33:02;7.4;;;6.7;;
537;SDS011;254;48.524;8.926;2023-04-06T09:34:03;8.3;;;7.0;;
537;SDS011;254;48.524;8.926;2023-04-06T09:35:05;10.4;;;6.9;;
537;SDS011;254;48.524;8.926;2023-04-06T09:36:01;8.1;;;7.1;;
537;SDS011;254;48.524;8.926;2023-04-06T09:37:11;8.3;;;7.2;;
537;SDS011;254;48.524;8.926;2023-04-06T09:38:10;8.0;;;7.2;;
537;SDS011;254;48.524;8.926;2023-04-06T09:39:03;7.9;;;7.1;;
537;SDS011;254;48.524;8.926;2023-04-06T09:40:03;9.4;;;6.9;;
537;SDS011;254;48.524;8.926;2023-04-06T09:41:02;7.9;;;7.1;;
537;SDS011;254;48.524;8.926;2023-04-06T09:42:03;7.6;;;6.8;;
537;SDS011;254;48.524;8.926;2023-04-06T09:43:02;8.2;;;7.4;;
537;SDS011;254;48.524;8.926;2023-04-06T09:44:02;9.1;;;7.3;;
537;SDS011;254;48.524;8.926;2023-04-06T09:45:03;8.0;;;6.7;;
537;SDS011;254;48.524;8.926;2023-04-06T09:46:02;7.6;;;6.8;;
537;SDS011;254;48.524;8.926;2023-04-06T09:47:02;9.9;;;7.4;;
537;SDS011;254;48.524;8.926;2023-04-06T09:48:02;8.0;;;6.5;;
537;SDS011;254;48.524;8.926;2023-04-06T09:49:03;7.4;;;6.6;;
537;SDS011;254;48.524;8.926;2023-04-06T09:50:04;8.1;;;7.3;;
537;SDS011;254;48.524;8.926;2023-04-06T09:51:03;10.3;;;7.6;;
537;SDS011;254;48.524;8.926;2023-04-06T09:52:03;9.7;;;6.9;;
537;SDS011;254;48.524;8.926;2023-04-06T09:53:02;7.9;;;7.0;;
537;SDS011;254;48.524;8.926;2023-04-06T09:54:02;7.9;;;7.0;;
537;SDS011;254;48.524;8.926;2023-04-06T09:55:03;8.0;;;6.9;;
537;SDS011;254;48.524;8.926;2023-04-06T09:56:03;9.4;;;7.6;;
537;SDS011;254;48.524;8.926;2023-04-06T09:57:04;7.9;;;6.7;;
537;SDS011;254;48.524;8.926;2023-04-06T09:58:04;9.1;;;7.1;;
537;SDS011;254;48.524;8.926;2023-04-06T09:59:05;9.0;;;7.1;;
537;SDS011;254;48.524;8.926;2023-04-06T10:00:03;8.0;;;6.6;;
537;SDS011;254;48.524;8.926;2023-04-06T10:01:06;8.7;;;7.0;;
537;SDS011;254;48.524;8.926;2023-04-06T10:02:01;7.6;;;6.8;;
537;SDS011;254;48.524;8.926;2023-04-06T10:03:04;8.0;;;6.5;;
537;SDS011;254;48.524;8.926;2023-04-06T10:04:04;8.0;;;5.9;;
537;SDS011;254;48.524;8.926;2023-04-06T10:05:05;7.4;;;5.5;;
537;SDS011;254;48.524;8.926;2023-04-06T10:06:03;7.0;;;5.8;;
537;SDS011;254;48.524;8.926;2023-04-06T10:07:02;8.7;;;5.8;;
537;SDS011;254;48.524;8.926;2023-04-06T10:08:03;6.9;;;6.0;;
537;SDS011;254;48.524;8.926;2023-04-06T10:09:03;6.9;;;5.2;;
537;SDS011;254;48.524;8.926;2023-04-06T10:10:03;5.1;;;4.6;;
537;SDS011;254;48.524;8.926;2023-04-06T10:11:02;7.7;;;5.1;;
537;SDS011;254;48.524;8.926;2023-04-06T10:12:03;6.1;;;5.2;;
537;SDS011;254;48.524;8.926;2023-04-06T10:13:02;7.7;;;4.7;;
537;SDS011;254;48.524;8.926;2023-04-06T10:14:03;6.7;;;4.5;;
537;SDS011;254;48.524;8.926;2023-04-06T10:15:02;6.1;;;4.5;;
537;SDS011;254;48.524;8.926;2023-04-06T10:16:03;5.4;;;3.8;;
537;SDS011;254;48.524;8.926;2023-04-06T10:17:02;5.4;;;4.2;;
537;SDS011;254;48.524;8.926;2023-04-06T10:18:03;6.5;;;4.6;;
537;SDS011;254;48.524;8.926;2023-04-06T10:19:04;5.8;;;4.1;;
537;SDS011;254;48.524;8.926;2023-04-06T10:20:04;5.4;;;3.8;;
537;SDS011;254;48.524;8.926;2023-04-06T10:21:04;4.9;;;4.2;;
537;SDS011;254;48.524;8.926;2023-04-06T10:22:02;4.7;;;4.2;;
537;SDS011;254;48.524;8.926;2023-04-06T10:23:04;6.2;;;5.2;;
537;SDS011;254;48.524;8.926;2023-04-06T10:24:08;5.7;;;4.5;;
537;SDS011;254;48.524;8.926;2023-04-06T10:25:02;4.8;;;4.2;;
537;SDS011;254;48.524;8.926;2023-04-06T10:26:03;5.6;;;5.0;;
537;SDS011;254;48.524;8.926;2023-04-06T10:27:02;5.5;;;4.3;;
537;SDS011;254;48.524;8.926;2023-04-06T10:28:04;6.1;;;4.2;;
537;SDS011;254;48.524;8.926;2023-04-06T10:29:02;6.9;;;4.5;;
537;SDS011;254;48.524;8.926;2023-04-06T10:30:04;5.2;;;4.6;;
537;SDS011;254;48.524;8.926;2023-04-06T10:31:03;7.4;;;4.3;;
537;SDS011;254;48.524;8.926;2023-04-06T10:32:01;5.6;;;4.6;;
537;SDS011;254;48.524;8.926;2023-04-06T10:33:12;5.9;;;5.0;;
537;SDS011;254;48.524;8.926;2023-04-06T10:34:02;5.4;;;4.1;;
537;SDS011;254;48.524;8.926;2023-04-06T10:35:06;5.0;;;4.2;;
537;SDS011;254;48.524;8.926;2023-04-06T10:36:10;4.3;;;3.8;;
537;SDS011;254;48.524;8.926;2023-04-06T10:37:10;5.2;;;4.3;;
537;SDS011;254;48.524;8.926;2023-04-06T10:38:03;5.6;;;4.6;;
537;SDS011;254;48.524;8.926;2023-04-06T10:39:03;5.7;;;4.7;;
537;SDS011;254;48.524;8.926;2023-04-06T10:40:02;5.7;;;4.8;;
537;SDS011;254;48.524;8.926;2023-04-06T10:41:04;5.8;;;4.8;;
537;SDS011;254;48.524;8.926;2023-04-06T10:42:06;5.5;;;4.3;;
537;SDS011;254;48.524;8.926;2023-04-06T10:43:07;4.8;;;4.3;;
537;SDS011;254;48.524;8.926;2023-04-06T10:44:03;5.4;;;4.4;;
537;SDS011;254;48.524;8.926;2023-04-06T10:45:05;5.8;;;4.2;;
537;SDS011;254;48.524;8.926;2023-04-06T10:46:03;6.1;;;4.6;;
537;SDS011;254;48.524;8.926;2023-04-06T10:47:02;5.7;;;4.4;;
537;SDS011;254;48.524;8.926;2023-04-06T10:48:12;5.6;;;4.7;;
537;SDS011;254;48.524;8.926;2023-04-06T10:49:10;6.2;;;4.6;;
537;SDS011;254;48.524;8.926;2023-04-06T10:50:02;5.0;;;4.5;;
537;SDS011;254;48.524;8.926;2023-04-06T10:51:02;5.2;;;4.7;;
537;SDS011;254;48.524;8.926;2023-04-06T10:52:02;6.4;;;4.8;;
537;SDS011;254;48.524;8.926;2023-04-06T10:53:02;5.8;;;4.7;;
537;SDS011;254;48.524;8.926;2023-04-06T10:54:03;4.9;;;4.4;;
537;SDS011;254;48.524;8.926;2023-04-06T10:55:02;5.5;;;4.8;;
537;SDS011;254;48.524;8.926;2023-04-06T10:56:03;8.7;;;5.0;;
537;SDS011;254;48.524;8.926;2023-04-06T10:57:03;5.3;;;4.8;;
537;SDS011;254;48.524;8.926;2023-04-06T10:58:02;6.0;;;5.0;;
537;SDS011;254;48.524;8.926;2023-04-06T10:59:01;7.5;;;5.7;;
537;SDS011;254;48.524;8.926;2023-04-06T11:00:03;6.1;;;4.9;;
537;SDS011;254;48.524;8.926;2023-04-06T11:01:03;7.7;;;5.3;;
537;SDS011;254;48.524;8.926;2023-04-06T11:02:02;5.2;;;4.5;;
537;SDS011;254;48.524;8.926;2023-04-06T11:03:02;6.0;;;4.4;;
537;SDS011;254;48.524;8.926;2023-04-06T11:04:02;6.0;;;4.8;;
537;SDS011;254;48.524;8.926;2023-04-06T11:05:02;9.5;;;5.1;;
537;SDS011;254;48.524;8.926;2023-04-06T11:06:02;5.4;;;4.3;;
537;SDS011;254;48.524;8.926;2023-04-06T11:07:02;4.6;;;3.9;;
537;SDS011;254;48.524;8.926;2023-04-06T11:08:03;6.5;;;3.6;;
537;SDS011;254;48.524;8.926;2023-04-06T11:09:01;5.3;;;4.2;;
537;SDS011;254;48.524;8.926;2023-04-06T11:10:02;5.1;;;4.6;;
537;SDS011;254;48.524;8.926;2023-04-06T11:11:03;5.4;;;4.9;;
537;SDS011;254;48.524;8.926;2023-04-06T11:12:04;5.8;;;4.5;;
537;SDS011;254;48.524;8.926;2023-04-06T11:13:02;6.9;;;4.9;;
537;SDS011;254;48.524;8.926;2023-04-06T11:14:03;5.8;;;5.0;;
537;SDS011;254;48.524;8.926;2023-04-06T11:15:02;5.7;;;4.7;;
537;SDS011;254;48.524;8.926;2023-04-06T11:16:03;6.5;;;4.7;;
537;SDS011;254;48.524;8.926;2023-04-06T11:17:02;5.4;;;4.7;;
537;SDS011;254;48.524;8.926;2023-04-06T11:18:03;6.0;;;5.3;;
537;SDS011;254;48.524;8.926;2023-04-06T11:19:02;6.4;;;5.4;;
537;SDS011;254;48.524;8.926;2023-04-06T11:20:03;6.6;;;5.7;;
537;SDS011;254;48.524;8.926;2023-04-06T11:21:02;8.2;;;6.1;;
537;SDS011;254;48.524;8.926;2023-04-06T11:22:06;6.2;;;5.6;;
537;SDS011;254;48.524;8.926;2023-04-06T11:23:02;7.0;;;5.8;;
537;SDS011;254;48.524;8.926;2023-04-06T11:24:04;5.7;;;5.1;;
537;SDS011;254;48.524;8.926;2023-04-06T11:25:04;7.3;;;5.1;;
537;SDS011;254;48.524;8.926;2023-04-06T11:26:01;7.6;;;5.2;;
537;SDS011;254;48.524;8.926;2023-04-06T11:27:02;6.0;;;5.4;;
537;SDS011;254;48.524;8.926;2023-04-06T11:28:03;7.1;;;5.9;;
537;SDS011;254;48.524;8.926;2023-04-06T11:29:02;7.9;;;4.8;;
537;SDS011;254;48.524;8.926;2023-04-06T11:30:04;5.6;;;5.0;;
537;SDS011;254;48.524;8.926;2023-04-06T11:31:02;5.5;;;4.7;;
537;SDS011;254;48.524;8.926;2023-04-06T11:32:02;6.1;;;5.0;;
537;SDS011;254;48.524;8.926;2023-04-06T11:33:02;5.4;;;4.7;;
537;SDS011;254;48.524;8.926;2023-04-06T11:34:02;5.7;;;4.6;;
537;SDS011;254;48.524;8.926;2023-04-06T11:35:02;7.5;;;4.9;;
537;SDS011;254;48.524;8.926;2023-04-06T11:36:02;6.1;;;4.4;;
537;SDS011;254;48.524;8.926;2023-04-06T11:37:03;5.6;;;4.7;;
537;SDS011;254;48.524;8.926;2023-04-06T11:38:02;4.9;;;4.3;;
537;SDS011;254;48.524;8.926;2023-04-06T11:39:02;6.5;;;4.7;;
537;SDS011;254;48.524;8.926;2023-04-06T11:40:02;5.6;;;4.5;;
537;SDS011;254;48.524;8.926;2023-04-06T11:41:03;5.9;;;4.7;;
537;SDS011;254;48.524;8.926;2023-04-06T11:42:02;5.5;;;4.8;;
537;SDS011;254;48.524;8.926;2023-04-06T11:43:03;5.3;;;4.8;;
537;SDS011;254;48.524;8.926;2023-04-06T11:44:02;5.2;;;4.6;;
537;SDS011;254;48.524;8.926;2023-04-06T11:45:03;5.9;;;4.5;;
537;SDS011;254;48.524;8.926;2023-04-06T11:46:03;6.0;;;5.0;;
537;SDS011;254;48.524;8.926;2023-04-06T11:47:02;6.0;;;4.9;;
537;SDS011;254;48.524;8.926;2023-04-06T11:48:02;6.7;;;5.0;;
537;SDS011;254;48.524;8.926;2023-04-06T11:49:02;6.6;;;4.7;;
537;SDS011;254;48.524;8.926;2023-04-06T11:50:06;5.1;;;4.6;;
537;SDS011;254;48.524;8.926;2023-04-06T11:51:02;6.5;;;5.3;;
537;SDS011;254;48.524;8.926;2023-04-06T11:52:02;5.9;;;5.2;;
537;SDS011;254;48.524;8.926;2023-04-06T11:53:02;5.9;;;4.9;;
537;SDS011;254;48.524;8.926;2023-04-06T11:54:03;6.2;;;4.9;;
537;SDS011;254;48.524;8.926;2023-04-06T11:55:10;5.6;;;5.0;;
537;SDS011;254;48.524;8.926;2023-04-06T11:56:02;5.0;;;4.5;;
537;SDS011;254;48.524;8.926;2023-04-06T11:57:02;6.4;;;4.6;;
537;SDS011;254;48.524;8.926;2023-04-06T11:58:03;5.0;;;4.5;;
537;SDS011;254;48.524;8.926;2023-04-06T11:59:01;5.4;;;4.5;;
537;SDS011;254;48.524;8.926;2023-04-06T12:00:02;7.3;;;4.6;;
537;SDS011;254;48.524;8.926;2023-04-06T12:01:03;4.7;;;4.2;;
537;SDS011;254;48.524;8.926;2023-04-06T12:02:02;5.6;;;4.1;;
537;SDS011;254;48.524;8.926;2023-04-06T12:03:02;4.7;;;4.2;;
537;SDS011;254;48.524;8.926;2023-04-06T12:04:02;4.9;;;4.2;;
537;SDS011;254;48.524;8.926;2023-04-06T12:05:03;5.3;;;4.4;;
537;SDS011;254;48.524;8.926;2023-04-06T12:06:02;4.9;;;4.4;;
537;SDS011;254;48.524;8.926;2023-04-06T12:07:02;5.9;;;4.3;;
537;SDS011;254;48.524;8.926;2023-04-06T12:08:02;5.4;;;4.4;;
537;SDS011;254;48.524;8.926;2023-04-06T12:09:02;4.8;;;4.0;;
537;SDS011;254;48.524;8.926;2023-04-06T12:10:02;4.4;;;3.7;;
537;SDS011;254;48.524;8.926;2023-04-06T12:11:04;4.5;;;3.7;;
537;SDS011;254;48.524;8.926;2023-04-06T12:12:02;4.2;;;3.6;;
537;SDS011;254;48.524;8.926;2023-04-06T12:13:02;5.0;;;3.6;;
537;SDS011;254;48.524;8.926;2023-04-06T12:14:02;5.3;;;3.9;;
537;SDS011;254;48.524;8.926;2023-04-06T12:15:03;6.6;;;3.8;;
537;SDS011;254;48.524;8.926;2023-04-06T12:16:02;4.2;;;3.4;;
537;SDS011;254;48.524;8.926;2023-04-06T12:17:03;4.3;;;3.4;;
537;SDS011;254;48.524;8.926;2023-04-06T12:18:02;3.8;;;3.4;;
537;SDS011;254;48.524;8.926;2023-04-06T12:19:02;6.2;;;3.1;;
537;SDS011;254;48.524;8.926;2023-04-06T12:20:02;4.5;;;3.3;;
537;SDS011;254;48.524;8.926;2023-04-06T12:21:03;3.5;;;3.0;;
537;SDS011;254;48.524;8.926;2023-04-06T12:22:02;3.5;;;2.9;;
537;SDS011;254;48.524;8.926;2023-04-06T12:23:02;4.5;;;3.4;;
537;SDS011;254;48.524;8.926;2023-04-06T12:24:02;4.0;;;3.6;;
537;SDS011;254;48.524;8.926;2023-04-06T12:25:03;4.3;;;3.4;;
537;SDS011;254;48.524;8.926;2023-04-06T12:26:02;4.7;;;3.4;;
537;SDS011;254;48.524;8.926;2023-04-06T12:27:02;8.0;;;4.1;;
537;SDS011;254;48.524;8.926;2023-04-06T12:28:02;6.4;;;3.8;;
537;SDS011;254;48.524;8.926;2023-04-06T12:29:01;4.4;;;3.8;;
537;SDS011;254;48.524;8.926;2023-04-06T12:30:02;6.8;;;4.6;;
537;SDS011;254;48.524;8.926;2023-04-06T12:31:02;5.3;;;4.7;;
537;SDS011;254;48.524;8.926;2023-04-06T12:32:02;5.7;;;3.9;;
537;SDS011;254;48.524;8.926;2023-04-06T12:33:02;6.7;;;4.3;;
537;SDS011;254;48.524;8.926;2023-04-06T12:34:02;4.9;;;4.0;;
537;SDS011;254;48.524;8.926;2023-04-06T12:35:04;4.7;;;4.1;;
537;SDS011;254;48.524;8.926;2023-04-06T12:36:02;5.4;;;4.2;;
537;SDS011;254;48.524;8.926;2023-04-06T12:37:02;6.3;;;4.7;;
537;SDS011;254;48.524;8.926;2023-04-06T12:38:03;5.1;;;4.6;;
537;SDS011;254;48.524;8.926;2023-04-06T12:39:01;6.5;;;3.9;;
537;SDS011;254;48.524;8.926;2023-04-06T12:40:02;6.4;;;4.4;;
537;SDS011;254;48.524;8.926;2023-04-06T12:41:02;5.3;;;4.5;;
537;SDS011;254;48.524;8.926;2023-04-06T12:42:02;6.3;;;4.6;;
537;SDS011;254;48.524;8.926;2023-04-06T12:43:02;5.4;;;4.4;;
537;SDS011;254;48.524;8.926;2023-04-06T12:44:02;5.8;;;4.5;;
537;SDS011;254;48.524;8.926;2023-04-06T12:45:03;5.8;;;3.8;;
537;SDS011;254;48.524;8.926;2023-04-06T12:46:02;4.5;;;4.1;;
537;SDS011;254;48.524;8.926;2023-04-06T12:47:02;5.1;;;3.8;;
537;SDS011;254;48.524;8.926;2023-04-06T12:48:03;4.8;;;3.8;;
537;SDS011;254;48.524;8.926;2023-04-06T12:49:01;4.9;;;4.3;;
537;SDS011;254;48.524;8.926;2023-04-06T12:50:02;5.3;;;4.4;;
537;SDS011;254;48.524;8.926;2023-04-06T12:51:03;4.8;;;3.8;;
537;SDS011;254;48.524;8.926;2023-04-06T12:52:03;4.5;;;3.9;;
537;SDS011;254;48.524;8.926;2023-04-06T12:53:03;5.3;;;4.3;;
537;SDS011;254;48.524;8.926;2023-04-06T12:54:02;5.4;;;4.0;;
537;SDS011;254;48.524;8.926;2023-04-06T12:55:02;4.7;;;4.1;;
537;SDS011;254;48.524;8.926;2023-04-06T12:56:09;4.8;;;4.0;;
537;SDS011;254;48.524;8.926;2023-04-06T12:57:02;5.8;;;4.0;;
537;SDS011;254;48.524;8.926;2023-04-06T12:58:03;6.0;;;4.6;;
537;SDS011;254;48.524;8.926;2023-04-06T12:59:01;4.3;;;3.8;;
537;SDS011;254;48.524;8.926;2023-04-06T13:00:02;8.2;;;4.3;;
537;SDS011;254;48.524;8.926;2023-04-06T13:01:05;5.2;;;4.5;;
537;SDS011;254;48.524;8.926;2023-04-06T13:02:01;5.5;;;4.6;;
537;SDS011;254;48.524;8.926;2023-04-06T13:03:02;5.5;;;4.3;;
537;SDS011;254;48.524;8.926;2023-04-06T13:04:02;4.9;;;4.3;;
537;SDS011;254;48.524;8.926;2023-04-06T13:05:03;5.2;;;4.3;;
537;SDS011;254;48.524;8.926;2023-04-06T13:06:02;5.4;;;4.2;;
537;SDS011;254;48.524;8.926;2023-04-06T13:07:02;6.0;;;4.3;;
537;SDS011;254;48.524;8.926;2023-04-06T13:08:02;6.5;;;4.3;;
537;SDS011;254;48.524;8.926;2023-04-06T13:09:02;8.1;;;4.5;;
537;SDS011;254;48.524;8.926;2023-04-06T13:10:04;5.3;;;4.4;;
537;SDS011;254;48.524;8.926;2023-04-06T13:11:02;5.2;;;4.2;;
537;SDS011;254;48.524;8.926;2023-04-06T13:12:02;7.8;;;4.7;;
537;SDS011;254;48.524;8.926;2023-04-06T13:13:03;5.5;;;4.2;;
537;SDS011;254;48.524;8.926;2023-04-06T13:14:02;5.2;;;4.2;;
537;SDS011;254;48.524;8.926;2023-04-06T13:15:03;5.2;;;4.5;;
537;SDS011;254;48.524;8.926;2023-04-06T13:16:03;5.0;;;4.2;;
537;SDS011;254;48.524;8.926;2023-04-06T13:17:02;5.5;;;4.5;;
537;SDS011;254;48.524;8.926;2023-04-06T13:18:02;7.4;;;4.5;;
537;SDS011;254;48.524;8.926;2023-04-06T13:19:02;4.8;;;4.3;;
537;SDS011;254;48.524;8.926;2023-04-06T13:20:03;4.9;;;4.3;;
537;SDS011;254;48.524;8.926;2023-04-06T13:21:02;5.2;;;4.4;;
537;SDS011;254;48.524;8.926;2023-04-06T13:22:02;5.5;;;4.3;;
537;SDS011;254;48.524;8.926;2023-04-06T13:23:02;5.0;;;4.5;;
537;SDS011;254;48.524;8.926;2023-04-06T13:24:03;5.6;;;4.5;;
537;SDS011;254;48.524;8.926;2023-04-06T13:25:02;4.6;;;4.2;;
537;SDS011;254;48.524;8.926;2023-04-06T13:26:03;7.4;;;4.7;;
537;SDS011;254;48.524;8.926;2023-04-06T13:27:02;5.0;;;4.5;;
537;SDS011;254;48.524;8.926;2023-04-06T13:28:03;5.7;;;4.5;;
537;SDS011;254;48.524;8.926;2023-04-06T13:29:02;5.1;;;4.6;;
537;SDS011;254;48.524;8.926;2023-04-06T13:30:02;5.2;;;4.6;;
537;SDS011;254;48.524;8.926;2023-04-06T13:31:03;6.6;;;4.8;;
537;SDS011;254;48.524;8.926;2023-04-06T13:32:02;4.7;;;4.2;;
537;SDS011;254;48.524;8.926;2023-04-06T13:33:02;4.5;;;4.1;;
537;SDS011;254;48.524;8.926;2023-04-06T13:34:02;5.1;;;4.6;;
537;SDS011;254;48.524;8.926;2023-04-06T13:35:03;6.0;;;4.5;;
537;SDS011;254;48.524;8.926;2023-04-06T13:36:03;6.3;;;4.8;;
537;SDS011;254;48.524;8.926;2023-04-06T13:37:03;5.7;;;4.0;;
537;SDS011;254;48.524;8.926;2023-04-06T13:38:02;5.8;;;4.2;;
537;SDS011;254;48.524;8.926;2023-04-06T13:39:03;4.6;;;4.1;;
537;SDS011;254;48.524;8.926;2023-04-06T13:40:03;4.4;;;4.0;;
537;SDS011;254;48.524;8.926;2023-04-06T13:41:03;5.3;;;4.4;;
537;SDS011;254;48.524;8.926;2023-04-06T13:42:02;5.2;;;4.2;;
537;SDS011;254;48.524;8.926;2023-04-06T13:43:02;5.6;;;4.5;;
537;SDS011;254;48.524;8.926;2023-04-06T13:44:02;5.3;;;4.0;;
537;SDS011;254;48.524;8.926;2023-04-06T13:45:03;5.6;;;4.1;;
537;SDS011;254;48.524;8.926;2023-04-06T13:46:01;5.0;;;4.2;;
537;SDS011;254;48.524;8.926;2023-04-06T13:47:02;5.3;;;4.3;;
537;SDS011;254;48.524;8.926;2023-04-06T13:48:02;5.9;;;4.6;;
537;SDS011;254;48.524;8.926;2023-04-06T13:49:03;4.8;;;4.0;;
537;SDS011;254;48.524;8.926;2023-04-06T13:50:02;4.5;;;3.9;;
537;SDS011;254;48.524;8.926;2023-04-06T13:51:07;5.8;;;4.4;;
537;SDS011;254;48.524;8.926;2023-04-06T13:52:02;4.6;;;4.2;;
537;SDS011;254;48.524;8.926;2023-04-06T13:53:02;4.7;;;4.2;;
537;SDS011;254;48.524;8.926;2023-04-06T13:54:02;5.5;;;4.4;;
537;SDS011;254;48.524;8.926;2023-04-06T13:55:03;5.2;;;4.2;;
537;SDS011;254;48.524;8.926;2023-04-06T13:56:02;5.0;;;4.4;;
537;SDS011;254;48.524;8.926;2023-04-06T13:57:03;5.0;;;4.4;;
537;SDS011;254;48.524;8.926;2023-04-06T13:58:02;4.8;;;4.3;;
537;SDS011;254;48.524;8.926;2023-04-06T13:59:03;4.6;;;4.2;;
537;SDS011;254;48.524;8.926;2023-04-06T14:00:02;5.4;;;4.5;;
537;SDS011;254;48.524;8.926;2023-04-06T14:01:03;5.6;;;4.2;;
537;SDS011;254;48.524;8.926;2023-04-06T14:02:02;5.5;;;4.7;;
537;SDS011;254;48.524;8.926;2023-04-06T14:03:02;5.8;;;4.2;;
537;SDS011;254;48.524;8.926;2023-04-06T14:04:03;5.1;;;4.1;;
537;SDS011;254;48.524;8.926;2023-04-06T14:05:02;4.8;;;4.2;;
537;SDS011;254;48.524;8.926;2023-04-06T14:06:09;5.7;;;4.0;;
537;SDS011;254;48.524;8.926;2023-04-06T14:07:02;5.2;;;4.4;;
537;SDS011;254;48.524;8.926;2023-04-06T14:08:03;6.1;;;4.8;;
537;SDS011;254;48.524;8.926;2023-04-06T14:09:03;5.9;;;4.3;;
537;SDS011;254;48.524;8.926;2023-04-06T14:10:02;4.7;;;4.2;;
537;SDS011;254;48.524;8.926;2023-04-06T14:11:02;4.8;;;4.3;;
537;SDS011;254;48.524;8.926;2023-04-06T14:12:02;5.4;;;4.5;;
537;SDS011;254;48.524;8.926;2023-04-06T14:13:02;4.8;;;4.2;;
537;SDS011;254;48.524;8.926;2023-04-06T14:14:03;4.6;;;4.2;;
537;SDS011;254;48.524;8.926;2023-04-06T14:15:02;5.9;;;4.2;;
537;SDS011;254;48.524;8.926;2023-04-06T14:16:02;5.0;;;4.4;;
537;SDS011;254;48.524;8.926;2023-04-06T14:17:02;5.0;;;4.1;;
537;SDS011;254;48.524;8.926;2023-04-06T14:18:03;5.2;;;3.9;;
537;SDS011;254;48.524;8.926;2023-04-06T14:19:01;6.5;;;4.5;;
537;SDS011;254;48.524;8.926;2023-04-06T14:20:03;5.5;;;4.0;;
537;SDS011;254;48.524;8.926;2023-04-06T14:21:02;6.7;;;4.4;;
537;SDS011;254;48.524;8.926;2023-04-06T14:22:03;5.1;;;3.9;;
537;SDS011;254;48.524;8.926;2023-04-06T14:23:01;4.6;;;4.0;;
537;SDS011;254;48.524;8.926;2023-04-06T14:24:02;5.9;;;4.4;;
537;SDS011;254;48.524;8.926;2023-04-06T14:25:04;4.9;;;4.1;;
537;SDS011;254;48.524;8.926;2023-04-06T14:26:03;4.9;;;4.3;;
537;SDS011;254;48.524;8.926;2023-04-06T14:27:02;4.6;;;3.9;;
537;SDS011;254;48.524;8.926;2023-04-06T14:28:02;8.3;;;4.0;;
537;SDS011;254;48.524;8.926;2023-04-06T14:29:03;5.7;;;4.0;;
537;SDS011;254;48.524;8.926;2023-04-06T14:30:03;4.7;;;4.2;;
537;SDS011;254;48.524;8.926;2023-04-06T14:31:08;4.6;;;4.0;;
537;SDS011;254;48.524;8.926;2023-04-06T14:32:02;5.9;;;4.3;;
537;SDS011;254;48.524;8.926;2023-04-06T14:33:02;5.4;;;4.1;;